Time;durP1;ratioP1;P1;durP2;ratioP2;P2;SDS_P1;SDS_P2;PMS_P1;PMS_P2;Temp;Humidity;BMP_temperature;BMP_pressure;BME280_temperature;BME280_humidity;BME280_pressure;Samples;Min_cycle;Max_cycle;Signal;HPM_P1;HPM_P2
2023/06/09 00:02:03;;;;;;;9.80;8.88;;;;;;;;;;5057294;28;20448;-24
2023/06/09 00:04:32;;;;;;;7.90;7.40;;;;;;;;;;5039537;28;20053;-23
2023/06/09 00:06:59;;;;;;;8.40;7.53;;;;;;;;;;5057195;28;20407;-23
2023/06/09 00:09:25;;;;;;;7.57;6.97;;;;;;;;;;5057265;28;20127;-23
2023/06/09 00:11:51;;;;;;;8.63;7.93;;;;;;;;;;5039569;28;20049;-23
2023/06/09 00:14:17;;;;;;;9.00;8.15;;;;;;;;;;5057163;28;20488;-23
2023/06/09 00:16:45;;;;;;;8.77;8.05;;;;;;;;;;5057262;28;20043;-23
2023/06/09 00:19:12;;;;;;;7.85;7.15;;;;;;;;;;5057075;28;20402;-23
2023/06/09 00:21:38;;;;;;;8.60;7.90;;;;;;;;;;5057010;28;20024;-23
2023/06/09 00:24:04;;;;;;;7.68;7.10;;;;;;;;;;5056876;28;20048;-24
2023/06/09 00:26:31;;;;;;;8.25;7.65;;;;;;;;;;5056921;28;20102;-22
2023/06/09 00:28:57;;;;;;;8.32;7.75;;;;;;;;;;5057113;28;20083;-23
2023/06/09 00:31:23;;;;;;;8.52;7.93;;;;;;;;;;5056845;28;20025;-23
2023/06/09 00:33:49;;;;;;;10.05;7.78;;;;;;;;;;5056660;28;20029;-23
2023/06/09 00:36:15;;;;;;;7.78;7.20;;;;;;;;;;5056897;28;20466;-23
2023/06/09 00:38:41;;;;;;;7.82;7.32;;;;;;;;;;5056709;28;20031;-22
2023/06/09 00:41:07;;;;;;;8.45;7.90;;;;;;;;;;5056905;28;20375;-23
2023/06/09 00:43:33;;;;;;;7.80;7.28;;;;;;;;;;5056980;28;20021;-24
2023/06/09 00:46:02;;;;;;;16.17;9.00;;;;;;;;;;5056505;28;20052;-23
2023/06/09 00:48:28;;;;;;;8.55;7.95;;;;;;;;;;5056562;28;20120;-23
2023/06/09 00:50:55;;;;;;;7.85;7.18;;;;;;;;;;5056421;28;20033;-23
2023/06/09 00:53:23;;;;;;;7.45;6.95;;;;;;;;;;5056372;28;20035;-23
2023/06/09 00:55:49;;;;;;;7.95;7.30;;;;;;;;;;5056253;28;20029;-23
2023/06/09 00:58:16;;;;;;;8.35;7.55;;;;;;;;;;5056576;28;20047;-23
2023/06/09 01:00:42;;;;;;;8.07;7.47;;;;;;;;;;5056210;28;20021;-23
2023/06/09 01:03:09;;;;;;;8.30;7.80;;;;;;;;;;5055893;28;20134;-23
2023/06/09 01:05:36;;;;;;;8.30;7.70;;;;;;;;;;5055097;28;20017;-23
2023/06/09 01:08:03;;;;;;;8.90;8.05;;;;;;;;;;5056114;28;20113;-23
2023/06/09 01:10:35;;;;;;;9.45;8.65;;;;;;;;;;5056081;28;20032;-24
2023/06/09 01:13:08;;;;;;;8.45;7.85;;;;;;;;;;5056318;28;20082;-27
2023/06/09 01:15:37;;;;;;;8.50;7.95;;;;;;;;;;5056232;28;20415;-22
2023/06/09 01:18:05;;;;;;;8.57;7.82;;;;;;;;;;5055934;28;20033;-23
2023/06/09 01:20:39;;;;;;;8.60;7.85;;;;;;;;;;5055911;28;20096;-23
2023/06/09 01:23:06;;;;;;;8.38;7.80;;;;;;;;;;5038646;28;20048;-23
2023/06/09 01:25:34;;;;;;;8.00;7.50;;;;;;;;;;5055809;28;20082;-22
2023/06/09 01:28:16;;;;;;;8.20;7.40;;;;;;;;;;5055983;28;20083;-22
2023/06/09 01:30:43;;;;;;;8.68;7.85;;;;;;;;;;5055942;28;20352;-22
2023/06/09 01:33:12;;;;;;;7.90;7.40;;;;;;;;;;5055842;28;20349;-22
2023/06/09 01:35:40;;;;;;;8.25;7.65;;;;;;;;;;5055759;28;20040;-24
2023/06/09 01:38:06;;;;;;;9.10;8.35;;;;;;;;;;5055788;28;20347;-24
2023/06/09 01:40:33;;;;;;;10.93;8.02;;;;;;;;;;5055799;28;20344;-24
2023/06/09 01:43:01;;;;;;;8.00;7.43;;;;;;;;;;5055891;28;20419;-23
2023/06/09 01:45:27;;;;;;;8.80;8.10;;;;;;;;;;5055397;28;20079;-23
2023/06/09 01:47:53;;;;;;;7.90;7.30;;;;;;;;;;5055371;28;20115;-23
2023/06/09 01:50:27;;;;;;;8.02;7.45;;;;;;;;;;5037678;28;20518;-23
2023/06/09 01:52:56;;;;;;;8.48;7.85;;;;;;;;;;5055262;28;20029;-22
2023/06/09 01:55:25;;;;;;;8.15;7.55;;;;;;;;;;5055507;28;20025;-23
2023/06/09 01:58:00;;;;;;;8.63;7.97;;;;;;;;;;5055087;28;20107;-23
2023/06/09 02:00:27;;;;;;;8.52;7.93;;;;;;;;;;5055463;28;20021;-23
2023/06/09 02:02:55;;;;;;;8.25;7.55;;;;;;;;;;5054834;28;20059;-23
2023/06/09 02:05:22;;;;;;;10.57;7.20;;;;;;;;;;5037556;28;20475;-23
2023/06/09 02:07:48;;;;;;;8.13;7.53;;;;;;;;;;5055313;28;20036;-23
2023/06/09 02:10:15;;;;;;;8.68;8.05;;;;;;;;;;5055483;28;20060;-23
2023/06/09 02:12:41;;;;;;;8.02;7.53;;;;;;;;;;5054834;28;20029;-24
2023/06/09 02:15:08;;;;;;;8.40;7.63;;;;;;;;;;5055663;28;20086;-23
2023/06/09 02:17:34;;;;;;;8.48;7.85;;;;;;;;;;5054492;28;20467;-22
2023/06/09 02:20:00;;;;;;;9.05;7.72;;;;;;;;;;5054799;28;20043;-23
2023/06/09 02:22:26;;;;;;;8.40;7.80;;;;;;;;;;5054623;28;20098;-23
2023/06/09 02:24:52;;;;;;;7.90;7.30;;;;;;;;;;5054982;28;20072;-23
2023/06/09 02:27:18;;;;;;;7.78;7.07;;;;;;;;;;5055452;28;20025;-23
2023/06/09 02:29:44;;;;;;;7.53;6.95;;;;;;;;;;5054930;28;20375;-24
2023/06/09 02:32:11;;;;;;;8.70;8.13;;;;;;;;;;5054557;28;20033;-24
2023/06/09 02:34:37;;;;;;;7.80;7.30;;;;;;;;;;5054914;28;20048;-22
2023/06/09 02:37:07;;;;;;;8.68;8.02;;;;;;;;;;5054840;28;20024;-23
2023/06/09 02:39:34;;;;;;;7.90;7.32;;;;;;;;;;5054825;28;20051;-24
2023/06/09 02:42:00;;;;;;;7.97;7.45;;;;;;;;;;5054426;28;20025;-23
2023/06/09 02:44:26;;;;;;;8.43;7.82;;;;;;;;;;5054792;28;20301;-23
2023/06/09 02:46:52;;;;;;;7.78;7.00;;;;;;;;;;5054776;28;20032;-22
2023/06/09 02:49:19;;;;;;;8.18;7.57;;;;;;;;;;5054466;28;20037;-23
2023/06/09 02:51:45;;;;;;;7.80;7.30;;;;;;;;;;5054618;28;20028;-23
2023/06/09 02:54:11;;;;;;;8.20;7.65;;;;;;;;;;5054445;28;20021;-23
2023/06/09 02:56:37;;;;;;;7.97;7.47;;;;;;;;;;5054353;28;20090;-23
2023/06/09 02:59:03;;;;;;;8.85;8.25;;;;;;;;;;5054378;28;20041;-23
2023/06/09 03:01:34;;;;;;;7.82;7.32;;;;;;;;;;5054367;28;20032;-23
2023/06/09 03:04:02;;;;;;;7.57;7.07;;;;;;;;;;5054207;28;20048;-23
2023/06/09 03:06:29;;;;;;;8.18;7.57;;;;;;;;;;5054859;28;20024;-23
2023/06/09 03:08:55;;;;;;;10.20;9.30;;;;;;;;;;5054193;28;20037;-23
2023/06/09 03:11:21;;;;;;;8.60;7.95;;;;;;;;;;5054527;28;20032;-22
2023/06/09 03:13:48;;;;;;;8.32;7.72;;;;;;;;;;5054655;28;20032;-23
2023/06/09 03:16:14;;;;;;;7.68;7.18;;;;;;;;;;5054400;28;20129;-23
2023/06/09 03:18:40;;;;;;;8.57;7.88;;;;;;;;;;5054180;28;20028;-23
2023/06/09 03:21:08;;;;;;;8.50;7.75;;;;;;;;;;5054454;28;20032;-24
2023/06/09 03:23:34;;;;;;;8.98;8.27;;;;;;;;;;5054108;28;20021;-23
2023/06/09 03:26:00;;;;;;;8.15;7.60;;;;;;;;;;5054099;28;20025;-23
2023/06/09 03:28:27;;;;;;;8.02;7.53;;;;;;;;;;5036644;28;20098;-23
2023/06/09 03:30:55;;;;;;;8.38;7.78;;;;;;;;;;5040418;28;20040;-23
2023/06/09 03:33:21;;;;;;;8.48;7.72;;;;;;;;;;5057829;28;20021;-23
2023/06/09 03:35:48;;;;;;;7.68;7.18;;;;;;;;;;5058371;28;20025;-24
2023/06/09 03:38:14;;;;;;;8.15;7.55;;;;;;;;;;5058073;28;20036;-24
2023/06/09 03:40:40;;;;;;;8.30;7.70;;;;;;;;;;5057660;28;20036;-23
2023/06/09 03:43:07;;;;;;;8.25;7.55;;;;;;;;;;5057915;28;20017;-23
2023/06/09 03:45:34;;;;;;;8.27;7.78;;;;;;;;;;5057621;28;20025;-23
2023/06/09 03:48:00;;;;;;;7.82;7.32;;;;;;;;;;5057938;28;20017;-24
2023/06/09 03:50:27;;;;;;;8.48;7.88;;;;;;;;;;5057569;28;20025;-22
2023/06/09 03:52:53;;;;;;;7.90;7.30;;;;;;;;;;5040131;28;20407;-24
2023/06/09 03:55:22;;;;;;;8.55;7.82;;;;;;;;;;5057566;28;20082;-23
2023/06/09 03:57:48;;;;;;;8.02;7.43;;;;;;;;;;5057198;28;20029;-22
2023/06/09 04:00:16;;;;;;;8.32;7.65;;;;;;;;;;5057635;28;20483;-23
2023/06/09 04:02:42;;;;;;;8.02;7.45;;;;;;;;;;5056972;28;20056;-23
2023/06/09 04:05:08;;;;;;;8.00;7.45;;;;;;;;;;5057613;28;20017;-22
2023/06/09 04:07:34;;;;;;;8.48;7.78;;;;;;;;;;5023184;28;20448;-23
2023/06/09 04:10:02;;;;;;;8.82;7.97;;;;;;;;;;5057285;28;20028;-23
2023/06/09 04:12:28;;;;;;;8.00;7.40;;;;;;;;;;5057209;28;20095;-22
2023/06/09 04:14:55;;;;;;;8.65;7.93;;;;;;;;;;5057021;28;20039;-22
2023/06/09 04:17:24;;;;;;;7.97;7.47;;;;;;;;;;5057056;28;20032;-23
2023/06/09 04:19:51;;;;;;;7.70;7.00;;;;;;;;;;5057211;28;20104;-22
2023/06/09 04:22:17;;;;;;;7.30;6.72;;;;;;;;;;5056980;28;20064;-23
2023/06/09 04:24:43;;;;;;;9.02;8.30;;;;;;;;;;5056958;28;20456;-23
2023/06/09 04:27:13;;;;;;;9.07;7.63;;;;;;;;;;5056831;28;20344;-23
2023/06/09 04:29:40;;;;;;;8.53;7.67;;;;;;;;;;5056592;28;20068;-23
2023/06/09 04:32:07;;;;;;;8.13;7.47;;;;;;;;;;5056832;28;20082;-23
2023/06/09 04:34:39;;;;;;;8.32;7.53;;;;;;;;;;5057067;28;20021;-24
2023/06/09 04:37:08;;;;;;;7.65;7.07;;;;;;;;;;5056289;28;20032;-22
2023/06/09 04:39:35;;;;;;;10.40;7.82;;;;;;;;;;5056210;28;20037;-24
2023/06/09 04:42:03;;;;;;;8.15;7.40;;;;;;;;;;5056807;28;20013;-23
2023/06/09 04:44:30;;;;;;;10.13;8.82;;;;;;;;;;5056526;28;20024;-23
2023/06/09 04:46:56;;;;;;;8.23;7.63;;;;;;;;;;5056295;28;20029;-22
2023/06/09 04:49:23;;;;;;;7.43;6.88;;;;;;;;;;5056798;28;20025;-23
2023/06/09 04:51:50;;;;;;;8.50;7.18;;;;;;;;;;5055992;28;20025;-22
2023/06/09 04:54:16;;;;;;;7.72;6.93;;;;;;;;;;5056157;28;20083;-23
2023/06/09 04:56:52;;;;;;;7.97;7.28;;;;;;;;;;5055902;28;20044;-23
2023/06/09 04:59:18;;;;;;;7.97;7.38;;;;;;;;;;5055703;28;20033;-22
2023/06/09 05:01:47;;;;;;;9.00;8.18;;;;;;;;;;5055948;28;20028;-22
2023/06/09 05:04:14;;;;;;;7.25;6.75;;;;;;;;;;5055419;28;20503;-23
2023/06/09 05:06:40;;;;;;;7.00;6.50;;;;;;;;;;5055517;28;20037;-23
2023/06/09 05:09:07;;;;;;;7.95;7.15;;;;;;;;;;5037970;28;20116;-22
2023/06/09 05:11:34;;;;;;;8.27;6.70;;;;;;;;;;5056061;28;20041;-25
2023/06/09 05:14:00;;;;;;;7.75;7.05;;;;;;;;;;5055887;28;20341;-23
2023/06/09 05:16:27;;;;;;;13.93;8.18;;;;;;;;;;5055965;28;20043;-22
2023/06/09 05:18:53;;;;;;;25.15;9.20;;;;;;;;;;5055798;28;20021;-25
2023/06/09 05:21:21;;;;;;;12.63;6.22;;;;;;;;;;5055941;28;20515;-23
2023/06/09 05:23:48;;;;;;;8.70;6.65;;;;;;;;;;5055592;28;20456;-24
2023/06/09 05:26:15;;;;;;;8.18;6.45;;;;;;;;;;5055974;28;20040;-23
2023/06/09 05:28:41;;;;;;;7.63;7.03;;;;;;;;;;5055565;28;20439;-22
2023/06/09 05:31:07;;;;;;;10.80;7.47;;;;;;;;;;5038128;28;20029;-22
2023/06/09 05:33:33;;;;;;;9.18;7.03;;;;;;;;;;5055682;28;20039;-22
2023/06/09 05:35:59;;;;;;;8.35;7.45;;;;;;;;;;5055572;28;20304;-24
2023/06/09 05:38:26;;;;;;;7.35;6.57;;;;;;;;;;5055311;28;20448;-24
2023/06/09 05:40:52;;;;;;;9.50;6.80;;;;;;;;;;5055206;28;20030;-23
2023/06/09 05:43:18;;;;;;;6.95;6.35;;;;;;;;;;5055184;28;20414;-26
2023/06/09 05:45:44;;;;;;;7.90;7.15;;;;;;;;;;5055464;28;20056;-22
2023/06/09 05:48:11;;;;;;;8.15;7.35;;;;;;;;;;5055422;28;20029;-23
2023/06/09 05:50:40;;;;;;;8.43;7.35;;;;;;;;;;5055428;28;20028;-23
2023/06/09 05:53:06;;;;;;;9.57;8.02;;;;;;;;;;5054578;28;20439;-23
2023/06/09 05:55:32;;;;;;;8.80;8.00;;;;;;;;;;5055203;28;20383;-23
2023/06/09 05:58:00;;;;;;;9.02;7.63;;;;;;;;;;5055208;28;20078;-22
2023/06/09 06:00:29;;;;;;;7.43;6.82;;;;;;;;;;5054836;28;20028;-23
2023/06/09 06:03:00;;;;;;;7.80;6.97;;;;;;;;;;5054206;28;20075;-23
2023/06/09 06:05:26;;;;;;;10.15;7.47;;;;;;;;;;5054523;28;20108;-23
2023/06/09 06:07:52;;;;;;;11.57;6.82;;;;;;;;;;5054689;28;20037;-24
2023/06/09 06:10:18;;;;;;;9.52;7.28;;;;;;;;;;5054327;28;20371;-24
2023/06/09 06:12:45;;;;;;;9.18;7.30;;;;;;;;;;5054736;28;20037;-23
2023/06/09 06:15:11;;;;;;;11.40;7.45;;;;;;;;;;5054706;28;20024;-22
2023/06/09 06:17:37;;;;;;;8.15;7.32;;;;;;;;;;5055233;28;20029;-22
2023/06/09 06:20:05;;;;;;;12.52;9.50;;;;;;;;;;5054433;28;20035;-22
2023/06/09 06:22:32;;;;;;;7.65;6.95;;;;;;;;;;5054981;28;20025;-23
2023/06/09 06:24:58;;;;;;;7.85;7.10;;;;;;;;;;5054449;28;20459;-22
2023/06/09 06:27:24;;;;;;;7.40;6.72;;;;;;;;;;5054130;28;20037;-23
2023/06/09 06:29:50;;;;;;;12.15;7.10;;;;;;;;;;5054280;28;20021;-23
2023/06/09 06:32:16;;;;;;;7.80;6.63;;;;;;;;;;5054306;28;20104;-23
2023/06/09 06:34:43;;;;;;;7.43;6.72;;;;;;;;;;5054504;28;20036;-23
2023/06/09 06:37:09;;;;;;;9.13;7.07;;;;;;;;;;5054261;28;20128;-23
2023/06/09 06:39:35;;;;;;;9.20;6.55;;;;;;;;;;5054299;28;20025;-23
2023/06/09 06:42:01;;;;;;;7.35;6.82;;;;;;;;;;5054591;28;20028;-24
2023/06/09 06:44:27;;;;;;;8.20;6.57;;;;;;;;;;5054002;28;20028;-22
2023/06/09 06:46:53;;;;;;;10.27;7.70;;;;;;;;;;5054287;28;20355;-23
2023/06/09 06:49:19;;;;;;;7.65;6.57;;;;;;;;;;5053959;28;20043;-23
2023/06/09 06:51:46;;;;;;;7.88;7.18;;;;;;;;;;5054456;28;20021;-23
2023/06/09 06:54:12;;;;;;;8.15;7.30;;;;;;;;;;5054055;28;20048;-23
2023/06/09 06:56:38;;;;;;;9.77;7.05;;;;;;;;;;5036463;28;20025;-23
2023/06/09 06:59:04;;;;;;;8.90;6.85;;;;;;;;;;5054209;28;20051;-22
2023/06/09 07:01:31;;;;;;;9.02;7.45;;;;;;;;;;5054436;28;20483;-22
2023/06/09 07:03:58;;;;;;;7.78;7.18;;;;;;;;;;5054709;28;20049;-23
2023/06/09 07:06:24;;;;;;;8.35;7.55;;;;;;;;;;5040685;28;20033;-24
2023/06/09 07:08:54;;;;;;;7.57;7.00;;;;;;;;;;5057927;28;20108;-21
2023/06/09 07:11:20;;;;;;;7.80;7.10;;;;;;;;;;5057946;28;20391;-25
2023/06/09 07:13:46;;;;;;;8.73;7.93;;;;;;;;;;5057955;28;20029;-23
2023/06/09 07:16:12;;;;;;;8.30;6.75;;;;;;;;;;5057648;28;20104;-23
2023/06/09 07:18:39;;;;;;;8.50;7.13;;;;;;;;;;5057841;28;20412;-23
2023/06/09 07:21:05;;;;;;;8.52;6.95;;;;;;;;;;5057941;28;20029;-23
2023/06/09 07:23:31;;;;;;;8.57;7.13;;;;;;;;;;5057535;28;20033;-22
2023/06/09 07:25:57;;;;;;;6.95;6.45;;;;;;;;;;5057693;28;20076;-23
2023/06/09 07:28:24;;;;;;;7.28;6.75;;;;;;;;;;5057574;28;20074;-24
2023/06/09 07:30:50;;;;;;;7.93;7.25;;;;;;;;;;5057908;28;20037;-24
2023/06/09 07:33:16;;;;;;;7.72;6.68;;;;;;;;;;5057759;28;20025;-23
2023/06/09 07:35:43;;;;;;;8.50;7.25;;;;;;;;;;5039955;28;20028;-23
2023/06/09 07:38:09;;;;;;;7.68;6.97;;;;;;;;;;5057623;28;20036;-23
2023/06/09 07:40:35;;;;;;;7.78;7.18;;;;;;;;;;5057328;28;20104;-23
2023/06/09 07:43:01;;;;;;;8.00;7.40;;;;;;;;;;5057260;28;20049;-23
2023/06/09 07:45:29;;;;;;;7.63;6.47;;;;;;;;;;5057959;28;20021;-23
2023/06/09 07:47:55;;;;;;;8.07;7.07;;;;;;;;;;5057504;28;20025;-31
2023/06/09 07:50:21;;;;;;;8.57;6.75;;;;;;;;;;5057209;28;20104;-22
2023/06/09 07:52:47;;;;;;;8.40;6.78;;;;;;;;;;5057284;28;20025;-23
2023/06/09 07:55:14;;;;;;;6.78;6.38;;;;;;;;;;5057433;28;20029;-23
2023/06/09 07:57:40;;;;;;;9.55;6.30;;;;;;;;;;5056834;28;20459;-23
2023/06/09 08:00:07;;;;;;;8.88;6.15;;;;;;;;;;5056931;28;20408;-23
2023/06/09 08:02:34;;;;;;;7.57;6.85;;;;;;;;;;5039113;28;20073;-24
2023/06/09 08:05:01;;;;;;;8.02;7.32;;;;;;;;;;5057549;28;20096;-24
2023/06/09 08:07:28;;;;;;;10.85;6.97;;;;;;;;;;5056769;28;20059;-23
2023/06/09 08:09:54;;;;;;;7.28;6.78;;;;;;;;;;5056976;28;20021;-25
2023/06/09 08:12:20;;;;;;;7.68;6.97;;;;;;;;;;5056742;28;20036;-22
2023/06/09 08:14:46;;;;;;;7.45;6.75;;;;;;;;;;5056532;28;20025;-23
2023/06/09 08:17:12;;;;;;;9.88;7.50;;;;;;;;;;5057002;28;20063;-23
2023/06/09 08:19:38;;;;;;;8.77;6.82;;;;;;;;;;5056947;28;20037;-24
2023/06/09 08:22:05;;;;;;;8.07;6.82;;;;;;;;;;5056903;28;20029;-23
2023/06/09 08:24:31;;;;;;;7.22;6.65;;;;;;;;;;5057040;28;20039;-22
2023/06/09 08:26:58;;;;;;;11.02;8.02;;;;;;;;;;5056957;28;20095;-23
2023/06/09 08:29:24;;;;;;;9.13;6.40;;;;;;;;;;5039133;28;20052;-23
2023/06/09 08:31:50;;;;;;;8.63;7.70;;;;;;;;;;5038876;28;20029;-22
2023/06/09 08:34:16;;;;;;;7.13;6.63;;;;;;;;;;5056789;28;20076;-23
2023/06/09 08:36:42;;;;;;;7.95;7.35;;;;;;;;;;5056540;28;20329;-23
2023/06/09 08:39:09;;;;;;;8.57;7.80;;;;;;;;;;5039112;28;20017;-24
2023/06/09 08:41:39;;;;;;;8.20;7.50;;;;;;;;;;5056404;28;20100;-23
2023/06/09 08:44:06;;;;;;;7.43;6.90;;;;;;;;;;5056219;28;20096;-24
2023/06/09 08:46:35;;;;;;;7.45;6.85;;;;;;;;;;5056721;28;20352;-23
2023/06/09 08:49:02;;;;;;;8.60;7.82;;;;;;;;;;5038611;28;20061;-23
2023/06/09 08:51:32;;;;;;;8.20;7.40;;;;;;;;;;5039018;28;20025;-24
2023/06/09 08:53:58;;;;;;;7.73;7.23;;;;;;;;;;5056058;28;20036;-24
2023/06/09 08:56:25;;;;;;;7.22;6.55;;;;;;;;;;5056220;28;20040;-24
2023/06/09 08:58:52;;;;;;;7.07;6.57;;;;;;;;;;5056350;28;20017;-22
2023/06/09 09:01:19;;;;;;;8.10;7.30;;;;;;;;;;5056011;28;20466;-23
2023/06/09 09:03:50;;;;;;;7.60;6.97;;;;;;;;;;5038108;28;20435;-23
2023/06/09 09:06:16;;;;;;;;;;;;;;;;;;5056283;28;20099;-23
2023/06/09 09:08:46;;;;;;;7.47;6.97;;;;;;;;;;5056120;28;19916;-23
2023/06/09 09:11:13;;;;;;;7.75;7.18;;;;;;;;;;5056032;28;20025;-23
2023/06/09 09:13:42;;;;;;;8.38;7.25;;;;;;;;;;5055670;28;20039;-22
2023/06/09 09:16:15;;;;;;;7.50;6.93;;;;;;;;;;5055522;28;20112;-22
2023/06/09 09:18:45;;;;;;;9.23;8.30;;;;;;;;;;5038011;28;20021;-22
2023/06/09 09:21:20;;;;;;;9.70;6.63;;;;;;;;;;5055475;28;20036;-23
2023/06/09 09:23:54;;;;;;;7.53;6.93;;;;;;;;;;5055738;28;20189;-23
2023/06/09 09:26:27;;;;;;;7.80;7.00;;;;;;;;;;5055014;28;20100;-24
2023/06/09 09:28:55;;;;;;;8.35;7.28;;;;;;;;;;5055646;28;20087;-25
2023/06/09 09:31:22;;;;;;;14.05;7.97;;;;;;;;;;5055701;28;20411;-29
2023/06/09 09:33:49;;;;;;;8.05;7.38;;;;;;;;;;5055404;28;20083;-23
2023/06/09 09:36:15;;;;;;;8.35;7.65;;;;;;;;;;5055150;28;20033;-23
2023/06/09 09:38:44;;;;;;;7.43;6.95;;;;;;;;;;5055200;28;20030;-22
2023/06/09 09:41:17;;;;;;;8.52;7.15;;;;;;;;;;5055666;28;20028;-24
2023/06/09 09:43:46;;;;;;;10.07;7.43;;;;;;;;;;5037397;28;20032;-24
2023/06/09 09:46:12;;;;;;;7.15;6.65;;;;;;;;;;5055029;28;20029;-24
2023/06/09 09:48:39;;;;;;;8.50;7.22;;;;;;;;;;5055230;28;20068;-27
2023/06/09 09:51:11;;;;;;;7.40;6.72;;;;;;;;;;5055325;28;20040;-24
2023/06/09 09:53:37;;;;;;;7.82;7.20;;;;;;;;;;5054983;28;20033;-24
2023/06/09 09:56:03;;;;;;;7.28;6.57;;;;;;;;;;5037149;28;20539;-23
2023/06/09 09:58:31;;;;;;;11.60;7.35;;;;;;;;;;5037500;28;20340;-22
2023/06/09 10:00:58;;;;;;;11.60;7.00;;;;;;;;;;5054632;28;20167;-23
2023/06/09 10:03:25;;;;;;;11.82;7.53;;;;;;;;;;5054391;28;20515;-23
2023/06/09 10:05:54;;;;;;;8.60;7.18;;;;;;;;;;5055014;28;20036;-23
2023/06/09 10:08:21;;;;;;;7.63;7.03;;;;;;;;;;5054561;28;20099;-23
2023/06/09 10:10:48;;;;;;;7.32;6.78;;;;;;;;;;5054961;28;20389;-23
2023/06/09 10:13:15;;;;;;;7.35;6.78;;;;;;;;;;5054827;28;20025;-23
2023/06/09 10:15:45;;;;;;;6.97;6.47;;;;;;;;;;5054414;28;20045;-22
2023/06/09 10:18:15;;;;;;;8.25;7.55;;;;;;;;;;5054405;28;20033;-22
2023/06/09 10:20:42;;;;;;;12.73;7.70;;;;;;;;;;5054609;28;20348;-23
2023/06/09 10:23:09;;;;;;;8.00;7.32;;;;;;;;;;5054267;28;20025;-23
2023/06/09 10:25:35;;;;;;;11.18;7.90;;;;;;;;;;5054254;28;20082;-23
2023/06/09 10:28:01;;;;;;;12.00;8.68;;;;;;;;;;5054129;28;20025;-22
2023/06/09 10:30:28;;;;;;;7.93;7.32;;;;;;;;;;5054221;28;20029;-23
2023/06/09 10:32:58;;;;;;;10.68;7.10;;;;;;;;;;5054188;28;20025;-24
2023/06/09 10:35:26;;;;;;;10.40;7.30;;;;;;;;;;5054383;28;20352;-24
2023/06/09 10:37:53;;;;;;;9.25;7.43;;;;;;;;;;5053758;28;20372;-28
2023/06/09 10:40:32;;;;;;;13.75;7.70;;;;;;;;;;5053993;28;20021;-24
2023/06/09 10:43:07;;;;;;;9.00;8.25;;;;;;;;;;5054156;28;20439;-25
2023/06/09 10:45:53;;;;;;;7.75;7.13;;;;;;;;;;5054088;28;20360;-23
2023/06/09 10:48:51;;;;;;;11.65;7.38;;;;;;;;;;5053846;28;20020;-23
2023/06/09 10:51:26;;;;;;;15.55;8.07;;;;;;;;;;5021243;28;20041;-23
2023/06/09 10:54:14;;;;;;;10.57;7.68;;;;;;;;;;5053889;28;20098;-23
2023/06/09 10:56:41;;;;;;;9.43;6.75;;;;;;;;;;5053802;28;20025;-23
2023/06/09 10:59:31;;;;;;;13.32;8.07;;;;;;;;;;5053807;28;20091;-23
2023/06/09 11:02:03;;;;;;;12.80;8.70;;;;;;;;;;5044897;28;20043;-24
2023/06/09 11:04:44;;;;;;;10.02;7.97;;;;;;;;;;5053691;28;20110;-24
2023/06/09 11:07:11;;;;;;;;;;;;;;;;;;5054449;28;20052;-23
2023/06/09 11:09:38;;;;;;;10.52;7.78;;;;;;;;;;5053713;28;19904;-24
2023/06/09 11:12:05;;;;;;;12.25;8.32;;;;;;;;;;5053949;28;20036;-23
2023/06/09 11:14:46;;;;;;;9.88;8.25;;;;;;;;;;5053777;28;20352;-24
2023/06/09 11:17:16;;;;;;;17.92;8.85;;;;;;;;;;5053863;28;20033;-23
2023/06/09 11:19:42;;;;;;;9.57;7.70;;;;;;;;;;5053965;28;20021;-24
2023/06/09 11:22:12;;;;;;;14.07;7.35;;;;;;;;;;5053528;28;20033;-23
2023/06/09 11:24:52;;;;;;;8.43;7.50;;;;;;;;;;5036025;28;20036;-23
2023/06/09 11:27:21;;;;;;;8.75;7.95;;;;;;;;;;5053943;28;20112;-23
2023/06/09 11:30:07;;;;;;;13.23;7.72;;;;;;;;;;5053715;28;20333;-23
2023/06/09 11:32:53;;;;;;;13.68;8.75;;;;;;;;;;5053944;28;20036;-23
2023/06/09 11:35:25;;;;;;;13.00;7.60;;;;;;;;;;5053520;28;20056;-23
2023/06/09 11:37:51;;;;;;;8.98;7.35;;;;;;;;;;5053623;28;20033;-24
2023/06/09 11:40:18;;;;;;;9.25;8.15;;;;;;;;;;5053630;28;20017;-24
2023/06/09 11:42:45;;;;;;;9.80;9.00;;;;;;;;;;5053680;28;20021;-24
2023/06/09 11:45:12;;;;;;;10.45;8.93;;;;;;;;;;5053566;28;20025;-24
2023/06/09 11:47:40;;;;;;;10.35;8.70;;;;;;;;;;5035830;28;20048;-23
2023/06/09 11:50:10;;;;;;;8.50;7.80;;;;;;;;;;5037208;28;20021;-22
2023/06/09 11:52:36;;;;;;;8.93;8.00;;;;;;;;;;5057273;28;20048;-23
2023/06/09 11:55:04;;;;;;;12.98;9.18;;;;;;;;;;5056942;28;20083;-22
2023/06/09 11:57:33;;;;;;;13.95;7.35;;;;;;;;;;5056919;28;20039;-23
2023/06/09 11:59:59;;;;;;;10.05;7.65;;;;;;;;;;5057187;28;20029;-23
2023/06/09 12:02:27;;;;;;;10.43;7.28;;;;;;;;;;5056750;28;20025;-24
2023/06/09 12:04:53;;;;;;;9.27;7.30;;;;;;;;;;5056960;28;20079;-23
2023/06/09 12:07:20;;;;;;;17.38;8.20;;;;;;;;;;5057183;28;20029;-23
2023/06/09 12:09:54;;;;;;;13.13;8.23;;;;;;;;;;5039276;28;20064;-23
2023/06/09 12:12:20;;;;;;;14.13;7.93;;;;;;;;;;5039199;28;20033;-22
2023/06/09 12:14:46;;;;;;;19.00;8.52;;;;;;;;;;5056895;28;20355;-22
2023/06/09 12:17:12;;;;;;;14.90;8.68;;;;;;;;;;5057045;28;20407;-24
2023/06/09 12:19:39;;;;;;;11.35;8.73;;;;;;;;;;5057025;28;20047;-23
2023/06/09 12:22:05;;;;;;;13.85;8.40;;;;;;;;;;5056822;28;20163;-24
2023/06/09 12:24:32;;;;;;;9.93;8.88;;;;;;;;;;5057003;28;20451;-24
2023/06/09 12:27:10;;;;;;;9.48;7.65;;;;;;;;;;5056537;28;20313;-24
2023/06/09 12:29:36;;;;;;;9.45;8.10;;;;;;;;;;5056846;28;20039;-24
2023/06/09 12:32:02;;;;;;;16.70;7.35;;;;;;;;;;5057026;28;20028;-23
2023/06/09 12:34:30;;;;;;;14.50;7.65;;;;;;;;;;5039106;28;20086;-23
2023/06/09 12:36:59;;;;;;;10.85;7.70;;;;;;;;;;5056295;28;20047;-23
2023/06/09 12:39:29;;;;;;;18.65;8.15;;;;;;;;;;5056280;28;20355;-24
2023/06/09 12:41:56;;;;;;;14.32;9.20;;;;;;;;;;5056311;28;20118;-24
2023/06/09 12:44:23;;;;;;;25.17;9.27;;;;;;;;;;5038595;28;20104;-23
2023/06/09 12:46:54;;;;;;;18.00;9.50;;;;;;;;;;5056242;28;20086;-24
2023/06/09 12:49:31;;;;;;;15.75;8.65;;;;;;;;;;5056780;28;20400;-23
2023/06/09 12:51:58;;;;;;;11.02;9.27;;;;;;;;;;5056420;28;20392;-23
2023/06/09 12:54:26;;;;;;;16.48;8.27;;;;;;;;;;5038612;28;20468;-22
2023/06/09 12:56:52;;;;;;;18.15;9.15;;;;;;;;;;5056411;28;20037;-24
2023/06/09 12:59:18;;;;;;;28.08;9.52;;;;;;;;;;5056216;28;20048;-23
2023/06/09 13:01:47;;;;;;;35.22;10.35;;;;;;;;;;5056376;28;20025;-24
2023/06/09 13:04:14;;;;;;;15.10;8.77;;;;;;;;;;5055980;28;20067;-24
2023/06/09 13:06:40;;;;;;;22.02;9.13;;;;;;;;;;5056031;28;20410;-23
2023/06/09 13:09:06;;;;;;;20.15;10.00;;;;;;;;;;5055857;28;20487;-22
2023/06/09 13:11:32;;;;;;;20.13;10.68;;;;;;;;;;5055837;28;20044;-22
2023/06/09 13:13:58;;;;;;;13.18;10.15;;;;;;;;;;5038172;28;20458;-23
2023/06/09 13:16:25;;;;;;;27.85;10.38;;;;;;;;;;5055933;28;20040;-26
2023/06/09 13:18:51;;;;;;;15.18;8.32;;;;;;;;;;5055883;28;20043;-24
2023/06/09 13:21:17;;;;;;;21.70;11.43;;;;;;;;;;5055614;28;20024;-24
2023/06/09 13:23:43;;;;;;;17.25;9.75;;;;;;;;;;5038023;28;20456;-25
2023/06/09 13:26:10;;;;;;;22.40;9.50;;;;;;;;;;5055548;28;20021;-23
2023/06/09 13:28:37;;;;;;;35.22;9.18;;;;;;;;;;5055478;28;20100;-22
2023/06/09 13:31:03;;;;;;;27.52;9.23;;;;;;;;;;5055736;28;20044;-23
2023/06/09 13:33:29;;;;;;;21.80;10.27;;;;;;;;;;5055551;28;20342;-23
2023/06/09 13:35:56;;;;;;;16.42;10.75;;;;;;;;;;5055749;28;20025;-24
2023/06/09 13:38:22;;;;;;;31.63;9.50;;;;;;;;;;5055276;28;20021;-23
2023/06/09 13:40:49;;;;;;;18.95;9.27;;;;;;;;;;5055885;28;20180;-22
2023/06/09 13:43:16;;;;;;;18.52;10.80;;;;;;;;;;5055706;28;20344;-24
2023/06/09 13:45:43;;;;;;;31.85;9.30;;;;;;;;;;5055246;28;20017;-24
2023/06/09 13:48:09;;;;;;;27.20;11.45;;;;;;;;;;5055244;28;20028;-24
2023/06/09 13:50:35;;;;;;;19.40;9.60;;;;;;;;;;5055474;28;20033;-23
2023/06/09 13:53:02;;;;;;;21.63;9.15;;;;;;;;;;5055069;28;20039;-23
2023/06/09 13:55:29;;;;;;;20.50;9.52;;;;;;;;;;5055382;28;20035;-23
2023/06/09 13:57:55;;;;;;;21.05;10.00;;;;;;;;;;5055465;28;20029;-23
2023/06/09 14:00:21;;;;;;;25.58;11.00;;;;;;;;;;5055539;28;20078;-21
2023/06/09 14:02:49;;;;;;;22.73;9.57;;;;;;;;;;5054583;28;20049;-22
2023/06/09 14:05:15;;;;;;;29.20;10.88;;;;;;;;;;5054843;28;20029;-23
2023/06/09 14:07:42;;;;;;;25.58;10.65;;;;;;;;;;5054927;28;20087;-23
2023/06/09 14:10:09;;;;;;;35.33;10.55;;;;;;;;;;5055275;28;20029;-22
2023/06/09 14:12:37;;;;;;;17.48;8.85;;;;;;;;;;5054473;28;20029;-24
2023/06/09 14:15:03;;;;;;;20.70;9.88;;;;;;;;;;5037269;28;20337;-22
2023/06/09 14:17:29;;;;;;;26.90;10.15;;;;;;;;;;5037224;28;20095;-23
2023/06/09 14:19:56;;;;;;;22.02;10.18;;;;;;;;;;5054795;28;20092;-24
2023/06/09 14:22:22;;;;;;;16.92;10.15;;;;;;;;;;5054993;28;20036;-24
2023/06/09 14:24:48;;;;;;;25.55;10.40;;;;;;;;;;5054589;28;20348;-23
2023/06/09 14:27:15;;;;;;;19.88;10.98;;;;;;;;;;5054672;28;20119;-23
2023/06/09 14:29:41;;;;;;;18.17;10.07;;;;;;;;;;5054604;28;20039;-24
2023/06/09 14:32:07;;;;;;;24.08;10.65;;;;;;;;;;5054760;28;20033;-24
2023/06/09 14:34:33;;;;;;;20.75;10.05;;;;;;;;;;5054812;28;20079;-24
2023/06/09 14:37:00;;;;;;;26.23;10.95;;;;;;;;;;5054300;28;20025;-22
2023/06/09 14:39:26;;;;;;;27.17;10.90;;;;;;;;;;5054853;28;20052;-22
2023/06/09 14:41:52;;;;;;;22.42;10.60;;;;;;;;;;5054327;28;20095;-22